Defiance — WDC9922 — position and weather

sailwx.info

Track history (hours):
 
Tides and Currents Weather Stations Pressure Air Temp Water Temp Dewpoint Dewpoint Depression Visibility Wind Speed Wind Dir Waves Ship Positions

Defiance

Owner: Gabbert Mr, James J, Sausalito, CA. More information available from US FCC via Universal Licensing System and Coast Guard Vessel Documentation Center.

Last reported at 2018-Apr-26 22:10 UTC. Time now 2018-Apr-26 22:59 UTC.
Position N 37°51' W 122°29'.

Length 27 m; draft 3 m.

Type: Pleasure craft. MMSI: 367108460.

Date/timePositionNaut miles runAvg speedWind from/ knotsBaromVisibWave heightAir tempDewpointWater temp
2018-Apr-26 22:10N 37°51' W 122°29'0 0.0
2018-Apr-26 21:58N 37°51' W 122°29'0 0.0
2018-Apr-26 17:57N 37°51' W 122°29'0 0.0
2018-Apr-26 17:27N 37°51' W 122°29'0 0.0
2018-Apr-26 17:00N 37°51' W 122°29'0 0.0
2018-Apr-26 15:39N 37°51' W 122°29'0 0.0
2018-Apr-26 15:22N 37°51' W 122°29'0 0.0
2018-Apr-26 14:51N 37°51' W 122°29'0 0.0
2018-Apr-26 14:26N 37°51' W 122°29'0 0.0
2018-Apr-26 13:57N 37°51' W 122°29'0 0.0
2018-Apr-26 13:27N 37°51' W 122°29'0 0.0
2018-Apr-26 12:50N 37°51' W 122°29'0 0.0
2018-Apr-26 12:28N 37°51' W 122°29'0 0.0
2018-Apr-26 11:56N 37°51' W 122°29'0 0.0
2018-Apr-26 11:27N 37°51' W 122°29'0 0.0
2018-Apr-26 09:46N 37°51' W 122°29'0 0.0
2018-Apr-26 09:27N 37°51' W 122°29'0 0.0
2018-Apr-26 08:54N 37°51' W 122°29'0 0.0
2018-Apr-26 08:25N 37°51' W 122°29'0 0.0
2018-Apr-26 07:51N 37°51' W 122°29'0 0.0
2018-Apr-26 07:17N 37°51' W 122°29'0 0.0
2018-Apr-26 06:40N 37°51' W 122°29'0 0.0
2018-Apr-26 06:25N 37°51' W 122°29'0 0.0
2018-Apr-26 05:51N 37°51' W 122°29'0 0.0
2018-Apr-26 05:24N 37°51' W 122°29'0 0.0
2018-Apr-26 04:32N 37°51' W 122°29'0 0.0
2018-Apr-26 04:22N 37°51' W 122°29'0 0.0
2018-Apr-26 03:57N 37°51' W 122°29'0 0.0
2018-Apr-26 03:30N 37°51' W 122°29'0 0.0
2018-Apr-26 02:49N 37°51' W 122°29'0 0.0
2018-Apr-26 02:26N 37°51' W 122°29'0 0.0
2018-Apr-25 20:32N 37°51' W 122°29'0 0.0
2018-Apr-25 20:21N 37°51' W 122°29'0 0.0
2018-Apr-25 19:45N 37°51' W 122°29'0 0.0
2018-Apr-25 19:17N 37°51' W 122°29'0 0.0
2018-Apr-25 18:56N 37°51' W 122°29'0 0.0
2018-Apr-25 18:29N 37°51' W 122°29'0 0.0
2018-Apr-25 17:53N 37°51' W 122°29'0 0.0
2018-Apr-25 17:27N 37°51' W 122°29'2 4.8
2018-Apr-25 17:00N 37°53' W 122°26'10 9.0
2018-Apr-25 15:56N 38°01' W 122°22'4 9.7
2018-Apr-25 15:30N 38°03' W 122°17'3 0.2
2018-Apr-24 19:56N 38°04' W 122°13'7 8.4
2018-Apr-24 19:03N 38°01' W 122°22'3 8.8
2018-Apr-24 18:46N 37°60' W 122°24'2 9.3
2018-Apr-24 18:30N 37°58' W 122°26'4 8.8
2018-Apr-24 18:00N 37°53' W 122°26'3 6.2
2018-Apr-24 17:30N 37°51' W 122°29'0 0.0
2018-Apr-24 17:00N 37°51' W 122°29'0 0.0
2018-Apr-24 16:30N 37°51' W 122°29'0 0.0
2018-Apr-24 16:00N 37°51' W 122°29'0 0.0
2018-Apr-24 15:29N 37°51' W 122°29'0 0.0
2018-Apr-24 15:00N 37°51' W 122°29'0 0.0
2018-Apr-24 14:30N 37°51' W 122°29'0 0.0
2018-Apr-24 13:59N 37°51' W 122°29'0 0.0
2018-Apr-24 13:30N 37°51' W 122°29'0 0.0
2018-Apr-24 12:59N 37°51' W 122°29'0 0.0
2018-Apr-24 12:30N 37°51' W 122°29'0 0.0
2018-Apr-24 11:59N 37°51' W 122°29'0 0.0
2018-Apr-24 11:30N 37°51' W 122°29'0 0.0
2018-Apr-24 11:00N 37°51' W 122°29'0 0.0
2018-Apr-24 10:30N 37°51' W 122°29'0 0.0
2018-Apr-24 10:01N 37°51' W 122°29'0 0.0
2018-Apr-24 09:31N 37°51' W 122°29'0 0.0
2018-Apr-24 09:00N 37°51' W 122°29'0 0.0
2018-Apr-24 08:30N 37°51' W 122°29'0 0.0
2018-Apr-24 08:00N 37°51' W 122°29'0 0.0
2018-Apr-24 07:29N 37°51' W 122°29'0 0.0
2018-Apr-24 07:00N 37°51' W 122°29'0 0.0
2018-Apr-24 06:30N 37°51' W 122°29'0 0.0
2018-Apr-24 06:00N 37°51' W 122°29'0 0.0
2018-Apr-24 05:29N 37°51' W 122°29'0 0.0
2018-Apr-24 04:59N 37°51' W 122°29'0 0.0
2018-Apr-24 04:29N 37°51' W 122°29'0 0.0
2018-Apr-24 04:00N 37°51' W 122°29'0 0.0
2018-Apr-24 03:28N 37°51' W 122°29'0 0.0
2018-Apr-24 02:59N 37°51' W 122°29'0 0.0
2018-Apr-24 02:30N 37°51' W 122°29'0 0.0
2018-Apr-24 02:00N 37°51' W 122°29'0 0.0
2018-Apr-24 01:30N 37°51' W 122°29'0 0.0
2018-Apr-24 01:00N 37°51' W 122°29'0 0.0
2018-Apr-24 00:30N 37°51' W 122°29'0 0.0
2018-Apr-24 00:00N 37°51' W 122°29'0 0.0
2018-Apr-23 23:29N 37°51' W 122°29'0 0.0
2018-Apr-23 23:00N 37°51' W 122°29'0 0.0
2018-Apr-23 22:30N 37°51' W 122°29'0 0.0
2018-Apr-23 21:59N 37°51' W 122°29'0 0.0
2018-Apr-23 21:30N 37°51' W 122°29'0 0.0
2018-Apr-23 21:00N 37°51' W 122°29'0 0.0
2018-Apr-23 20:30N 37°51' W 122°29'0 0.0
2018-Apr-23 19:58N 37°51' W 122°29'0 0.0
2018-Apr-23 19:30N 37°51' W 122°29'0 0.0
2018-Apr-23 19:00N 37°51' W 122°29'0 0.0
2018-Apr-23 18:30N 37°51' W 122°29'0 0.0
2018-Apr-23 18:00N 37°51' W 122°29'0 0.0
2018-Apr-23 17:29N 37°51' W 122°29'0 0.0
2018-Apr-23 17:00N 37°51' W 122°29'0 0.0
2018-Apr-23 16:29N 37°51' W 122°29'0 0.0
2018-Apr-23 16:00N 37°51' W 122°29'0 0.0
2018-Apr-23 15:30N 37°51' W 122°29'0 0.0
2018-Apr-23 15:00N 37°51' W 122°29'0 0.0
2018-Apr-23 14:30N 37°51' W 122°29'0 0.0
2018-Apr-23 14:00N 37°51' W 122°29'0 0.0
2018-Apr-23 13:30N 37°51' W 122°29'0 0.0
2018-Apr-23 13:00N 37°51' W 122°29'0 0.0
2018-Apr-23 12:30N 37°51' W 122°29'0 0.0
2018-Apr-23 11:59N 37°51' W 122°29'0 0.0
2018-Apr-23 11:31N 37°51' W 122°29'0 0.0
2018-Apr-23 10:59N 37°51' W 122°29'0 0.0
2018-Apr-23 10:29N 37°51' W 122°29'0 0.0
2018-Apr-23 10:00N 37°51' W 122°29'0 0.0
2018-Apr-23 09:30N 37°51' W 122°29'0 0.0
2018-Apr-23 09:00N 37°51' W 122°29'0 0.0
2018-Apr-23 08:31N 37°51' W 122°29'0 0.0
2018-Apr-23 08:01N 37°51' W 122°29'0 0.0
2018-Apr-23 07:30N 37°51' W 122°29'0 0.0
2018-Apr-23 07:00N 37°51' W 122°29'0 0.0
2018-Apr-23 06:30N 37°51' W 122°29'0 0.0
2018-Apr-23 06:00N 37°51' W 122°29'0 0.0
2018-Apr-23 05:30N 37°51' W 122°29'0 0.0
2018-Apr-23 05:00N 37°51' W 122°29'0 0.0
2018-Apr-23 04:29N 37°51' W 122°29'0 0.0
2018-Apr-23 04:00N 37°51' W 122°29'0 0.0
2018-Apr-23 03:30N 37°51' W 122°29'0 0.0
2018-Apr-23 02:59N 37°51' W 122°29'0 0.0
2018-Apr-23 02:30N 37°51' W 122°29'0 0.0
2018-Apr-23 02:01N 37°51' W 122°29'0 0.0
2018-Apr-23 01:30N 37°51' W 122°29'0 0.0
2018-Apr-23 00:59N 37°51' W 122°29'0 0.0
2018-Apr-23 00:30N 37°51' W 122°29'0 0.0
2018-Apr-23 00:00N 37°51' W 122°29'0 0.0
2018-Apr-22 23:30N 37°51' W 122°29'0 0.0
2018-Apr-22 22:59N 37°51' W 122°29'0 0.0
2018-Apr-22 22:28N 37°51' W 122°29'0 0.0
2018-Apr-22 22:00N 37°51' W 122°29'0 0.0
2018-Apr-22 21:29N 37°51' W 122°29'0 0.0
2018-Apr-22 20:59N 37°51' W 122°29'0 0.0
2018-Apr-22 20:29N 37°51' W 122°29'0 0.0
2018-Apr-22 19:58N 37°51' W 122°29'0 0.0
2018-Apr-22 19:29N 37°51' W 122°29'0 0.0
2018-Apr-22 19:00N 37°51' W 122°29'0 0.0
2018-Apr-22 18:30N 37°51' W 122°29'0 0.0
2018-Apr-22 18:00N 37°51' W 122°29'0 0.0
2018-Apr-22 17:30N 37°51' W 122°29'0 0.0
2018-Apr-22 17:00N 37°51' W 122°29'0 0.0
2018-Apr-22 16:30N 37°51' W 122°29'0 0.0
2018-Apr-22 16:00N 37°51' W 122°29'0 0.0
2018-Apr-22 15:30N 37°51' W 122°29'0 0.0
2018-Apr-22 15:00N 37°51' W 122°29'0 0.0
2018-Apr-22 14:29N 37°51' W 122°29'0 0.0
2018-Apr-22 14:01N 37°51' W 122°29'0 0.0
2018-Apr-22 13:31N 37°51' W 122°29'0 0.0
2018-Apr-22 13:00N 37°51' W 122°29'0 0.0
2018-Apr-22 12:30N 37°51' W 122°29'0 0.0
2018-Apr-22 12:00N 37°51' W 122°29'0 0.0
2018-Apr-22 11:30N 37°51' W 122°29'0 0.0
2018-Apr-22 11:00N 37°51' W 122°29'0 0.0
2018-Apr-22 10:30N 37°51' W 122°29'0 0.0
2018-Apr-22 09:59N 37°51' W 122°29'0 0.0
2018-Apr-22 09:30N 37°51' W 122°29'0 0.0
2018-Apr-22 09:01N 37°51' W 122°29'0 0.0
2018-Apr-22 08:30N 37°51' W 122°29'0 0.0
2018-Apr-22 08:00N 37°51' W 122°29'0 0.0
2018-Apr-22 07:30N 37°51' W 122°29'0 0.0
2018-Apr-22 07:00N 37°51' W 122°29'0 0.0
2018-Apr-22 06:30N 37°51' W 122°29'0 0.0
2018-Apr-22 06:00N 37°51' W 122°29'0 0.0
2018-Apr-22 05:30N 37°51' W 122°29'0 0.0
2018-Apr-22 05:00N 37°51' W 122°29'0 0.0
2018-Apr-22 04:30N 37°51' W 122°29'0 0.0
2018-Apr-22 04:00N 37°51' W 122°29'0 0.0
2018-Apr-22 03:29N 37°51' W 122°29'0 0.0
2018-Apr-22 03:00N 37°51' W 122°29'0 0.0
2018-Apr-22 02:30N 37°51' W 122°29'0 0.0
2018-Apr-22 02:00N 37°51' W 122°29'0 0.0
2018-Apr-22 01:30N 37°51' W 122°29'0 0.0
2018-Apr-22 01:00N 37°51' W 122°29'0 0.0
2018-Apr-22 00:30N 37°51' W 122°29'0 0.0
2018-Apr-22 00:00N 37°51' W 122°29'0 0.0
2018-Apr-21 23:31N 37°51' W 122°29'0 0.0
2018-Apr-21 23:00N 37°51' W 122°29'0 0.0
2018-Apr-21 22:31N 37°51' W 122°29'0 0.0
2018-Apr-21 22:00N 37°51' W 122°29'0 0.0
2018-Apr-21 21:31N 37°51' W 122°29'0 0.0
2018-Apr-21 21:00N 37°51' W 122°29'0 0.0
2018-Apr-21 20:30N 37°51' W 122°29'0 0.0
2018-Apr-21 20:00N 37°51' W 122°29'0 0.0
2018-Apr-21 19:29N 37°51' W 122°29'0 0.0
2018-Apr-21 19:00N 37°51' W 122°29'0 0.0
2018-Apr-21 18:30N 37°51' W 122°29'0 0.0
2018-Apr-21 18:00N 37°51' W 122°29'0 0.0
2018-Apr-21 17:30N 37°51' W 122°29'0 0.0
2018-Apr-21 17:00N 37°51' W 122°29'0 0.0
2018-Apr-21 16:30N 37°51' W 122°29'0 0.0
2018-Apr-21 16:00N 37°51' W 122°29'0 0.0
2018-Apr-21 15:30N 37°51' W 122°29'0 0.0
2018-Apr-21 15:00N 37°51' W 122°29'0 0.0
2018-Apr-21 14:30N 37°51' W 122°29'0 0.0
2018-Apr-21 14:00N 37°51' W 122°29'0 0.0
2018-Apr-21 13:30N 37°51' W 122°29'0 0.0
2018-Apr-21 12:59N 37°51' W 122°29'0 0.0
2018-Apr-21 12:30N 37°51' W 122°29'0 0.0
2018-Apr-21 12:00N 37°51' W 122°29'0 0.0
2018-Apr-21 11:30N 37°51' W 122°29'0 0.0
2018-Apr-21 11:00N 37°51' W 122°29'0 0.0
2018-Apr-21 10:30N 37°51' W 122°29'0 0.0
2018-Apr-21 10:00N 37°51' W 122°29'0 0.0
2018-Apr-21 09:30N 37°51' W 122°29'0 0.0
2018-Apr-21 09:00N 37°51' W 122°29'0 0.0
2018-Apr-21 08:30N 37°51' W 122°29'0 0.0
2018-Apr-21 08:00N 37°51' W 122°29'0 0.0
2018-Apr-21 07:29N 37°51' W 122°29'0 0.0
2018-Apr-21 07:01N 37°51' W 122°29'0 0.0
2018-Apr-21 06:28N 37°51' W 122°29'0 0.0
2018-Apr-21 05:59N 37°51' W 122°29'0 0.0
2018-Apr-21 05:30N 37°51' W 122°29'0 0.0
2018-Apr-21 05:00N 37°51' W 122°29'0 0.0
2018-Apr-21 04:27N 37°51' W 122°29'0 0.0
2018-Apr-21 04:00N 37°51' W 122°29'0 0.0
2018-Apr-21 03:30N 37°51' W 122°29'0 0.0
2018-Apr-21 02:59N 37°51' W 122°29'0 0.0
2018-Apr-21 02:30N 37°51' W 122°29'0 0.0
2018-Apr-21 02:00N 37°51' W 122°29'0 0.0
2018-Apr-21 01:30N 37°51' W 122°29'0 0.0
2018-Apr-21 00:59N 37°51' W 122°29'0 0.0
2018-Apr-21 00:30N 37°51' W 122°29'0 0.0
2018-Apr-21 00:00N 37°51' W 122°29'0 0.0
2018-Apr-20 23:30N 37°51' W 122°29'0 0.0
2018-Apr-20 23:00N 37°51' W 122°29'0 0.0
2018-Apr-20 22:30N 37°51' W 122°29'0 0.0
2018-Apr-20 22:00N 37°51' W 122°29'0 0.0
2018-Apr-20 21:29N 37°51' W 122°29'0 0.0
2018-Apr-20 21:00N 37°51' W 122°29'0 0.0
2018-Apr-20 20:30N 37°51' W 122°29'0 0.0
2018-Apr-20 19:59N 37°51' W 122°29'0 0.0
2018-Apr-20 19:23N 37°51' W 122°29'0 0.0
2018-Apr-20 19:00N 37°51' W 122°29'0 0.0
2018-Apr-20 18:30N 37°51' W 122°29'0 0.0
2018-Apr-20 18:00N 37°51' W 122°29'0 0.0
2018-Apr-20 17:29N 37°51' W 122°29'0 0.0
2018-Apr-20 17:00N 37°51' W 122°29'0 0.0
2018-Apr-20 16:30N 37°51' W 122°29'0 0.0
2018-Apr-20 16:00N 37°51' W 122°29'0 0.0
2018-Apr-20 15:25N 37°51' W 122°29'0 0.0
2018-Apr-20 15:00N 37°51' W 122°29'0 0.0
2018-Apr-20 14:30N 37°51' W 122°29'0 0.0
2018-Apr-20 14:00N 37°51' W 122°29'0 0.0
2018-Apr-20 13:31N 37°51' W 122°29'0 0.0
2018-Apr-20 13:00N 37°51' W 122°29'0 0.0
2018-Apr-20 12:28N 37°51' W 122°29'0 0.0
2018-Apr-20 12:00N 37°51' W 122°29'0 0.0
2018-Apr-20 11:30N 37°51' W 122°29'0 0.0
2018-Apr-20 11:00N 37°51' W 122°29'0 0.0
2018-Apr-20 10:30N 37°51' W 122°29'0 0.0
2018-Apr-20 10:00N 37°51' W 122°29'0 0.0
2018-Apr-20 09:30N 37°51' W 122°29'0 0.0
2018-Apr-20 09:00N 37°51' W 122°29'0 0.0
2018-Apr-20 08:30N 37°51' W 122°29'0 0.0
2018-Apr-20 08:00N 37°51' W 122°29'0 0.0
2018-Apr-20 07:30N 37°51' W 122°29'0 0.0
2018-Apr-20 07:00N 37°51' W 122°29'0 0.0
2018-Apr-20 06:30N 37°51' W 122°29'0 0.0
2018-Apr-20 05:58N 37°51' W 122°29'0 0.0
2018-Apr-20 05:30N 37°51' W 122°29'0 0.0
2018-Apr-20 05:00N 37°51' W 122°29'0 0.0
2018-Apr-20 04:28N 37°51' W 122°29'0 0.0
2018-Apr-20 03:52N 37°51' W 122°29'0 0.0
2018-Apr-20 03:30N 37°51' W 122°29'0 0.0
2018-Apr-20 03:00N 37°51' W 122°29'0 0.0
2018-Apr-20 02:30N 37°51' W 122°29'0 0.0
2018-Apr-20 01:57N 37°51' W 122°29'0 0.0
2018-Apr-20 01:29N 37°51' W 122°29'0 0.0
2018-Apr-20 00:58N 37°51' W 122°29'0 0.0
2018-Apr-20 00:26N 37°51' W 122°29'0 0.0
2018-Apr-20 00:00N 37°51' W 122°29'0 0.0
2018-Apr-19 23:17N 37°51' W 122°29'0 0.0
2018-Apr-19 22:48N 37°51' W 122°29'0 0.0
2018-Apr-19 22:00N 37°51' W 122°29'0 0.0
2018-Apr-19 21:27N 37°51' W 122°29'0 0.0
2018-Apr-19 21:00N 37°51' W 122°29'0 0.0
2018-Apr-19 20:30N 37°51' W 122°29'0 0.0
2018-Apr-19 20:00N 37°51' W 122°29'0 0.0
2018-Apr-19 19:30N 37°51' W 122°29'0 0.0
2018-Apr-19 18:59N 37°51' W 122°29'0 0.0
2018-Apr-19 18:29N 37°51' W 122°29'0 0.0
2018-Apr-19 18:00N 37°51' W 122°29'0 0.0
2018-Apr-19 17:30N 37°51' W 122°29'0 0.0
2018-Apr-19 17:00N 37°51' W 122°29'0 0.0
2018-Apr-19 16:29N 37°51' W 122°29'0 0.0
2018-Apr-19 15:57N 37°51' W 122°29'0 0.0
2018-Apr-19 15:30N 37°51' W 122°29'0 0.0
2018-Apr-19 14:59N 37°51' W 122°29'0 0.0
2018-Apr-19 14:29N 37°51' W 122°29'0 0.0
2018-Apr-19 14:00N 37°51' W 122°29'0 0.0
2018-Apr-19 13:29N 37°51' W 122°29'0 0.0
2018-Apr-19 12:59N 37°51' W 122°29'0 0.0
2018-Apr-19 12:27N 37°51' W 122°29'0 0.0
2018-Apr-19 12:00N 37°51' W 122°29'0 0.0
2018-Apr-19 11:30N 37°51' W 122°29'0 0.0
2018-Apr-19 11:00N 37°51' W 122°29'0 0.0
2018-Apr-19 10:29N 37°51' W 122°29'0 0.0
2018-Apr-19 10:00N 37°51' W 122°29'0 0.0
2018-Apr-19 09:30N 37°51' W 122°29'0 0.0
2018-Apr-19 08:59N 37°51' W 122°29'0 0.0
2018-Apr-19 08:30N 37°51' W 122°29'0 0.0
2018-Apr-19 08:00N 37°51' W 122°29'0 0.0
2018-Apr-19 07:30N 37°51' W 122°29'0 0.0
2018-Apr-19 07:00N 37°51' W 122°29'0 0.0
2018-Apr-19 06:31N 37°51' W 122°29'0 0.0
2018-Apr-19 06:00N 37°51' W 122°29'0 0.0
2018-Apr-19 05:30N 37°51' W 122°29'0 0.0
2018-Apr-19 05:00N 37°51' W 122°29'0 0.0
2018-Apr-19 04:30N 37°51' W 122°29'0 0.0
2018-Apr-19 03:59N 37°51' W 122°29'0 0.0
2018-Apr-19 03:29N 37°51' W 122°29'0 0.0
2018-Apr-19 02:59N 37°51' W 122°29'0 0.0
2018-Apr-19 02:30N 37°51' W 122°29'0 0.0
2018-Apr-19 01:58N 37°51' W 122°29'0 0.0
2018-Apr-19 01:28N 37°51' W 122°29'0 0.0
2018-Apr-19 00:58N 37°51' W 122°29'0 0.0
2018-Apr-19 00:22N 37°51' W 122°29'0 0.0
2018-Apr-18 23:51N 37°51' W 122°29'0 0.0
2018-Apr-18 23:30N 37°51' W 122°29'0 0.0
2018-Apr-18 22:53N 37°51' W 122°29'0 0.0
2018-Apr-18 22:30N 37°51' W 122°29'0 0.0
2018-Apr-18 22:01N 37°51' W 122°29'0 0.0
2018-Apr-18 21:29N 37°51' W 122°29'0 0.0
2018-Apr-18 20:59N 37°51' W 122°29'0 0.0
2018-Apr-18 20:28N 37°51' W 122°29'0 0.0
2018-Apr-18 19:59N 37°51' W 122°29'0 0.0
2018-Apr-18 19:29N 37°51' W 122°29'0 0.0
2018-Apr-18 18:59N 37°51' W 122°29'0 0.0
2018-Apr-18 18:30N 37°51' W 122°29'0 0.0
2018-Apr-18 17:59N 37°51' W 122°29'0 0.0
2018-Apr-18 17:30N 37°51' W 122°29'0 0.0
2018-Apr-18 17:00N 37°51' W 122°29'0 0.0
2018-Apr-18 16:28N 37°51' W 122°29'0 0.0
2018-Apr-18 16:00N 37°51' W 122°29'0 0.0
2018-Apr-18 15:30N 37°51' W 122°29'0 0.0
2018-Apr-18 14:52N 37°51' W 122°29'0 0.0
2018-Apr-18 14:29N 37°51' W 122°29'0 0.0
2018-Apr-18 13:56N 37°51' W 122°29'0 0.0
2018-Apr-18 13:23N 37°51' W 122°29'0 0.0
2018-Apr-18 12:58N 37°51' W 122°29'0 0.0
2018-Apr-18 12:29N 37°51' W 122°29'0 0.0
2018-Apr-18 11:57N 37°51' W 122°29'0 0.0
2018-Apr-18 11:30N 37°51' W 122°29'0 0.0
2018-Apr-18 11:00N 37°51' W 122°29'0 0.0
2018-Apr-18 10:30N 37°51' W 122°29'0 0.0
2018-Apr-18 09:59N 37°51' W 122°29'0 0.0
2018-Apr-18 09:30N 37°51' W 122°29'0 0.0
2018-Apr-18 09:00N 37°51' W 122°29'0 0.0
2018-Apr-18 08:31N 37°51' W 122°29'0 0.0
2018-Apr-18 08:00N 37°51' W 122°29'0 0.0
2018-Apr-18 07:30N 37°51' W 122°29'0 0.0
2018-Apr-18 07:00N 37°51' W 122°29'0 0.0
2018-Apr-18 06:30N 37°51' W 122°29'0 0.0
2018-Apr-18 05:59N 37°51' W 122°29'0 0.0
2018-Apr-18 05:30N 37°51' W 122°29'0 0.0
2018-Apr-18 04:59N 37°51' W 122°29'0 0.0
2018-Apr-18 04:29N 37°51' W 122°29'0 0.0
2018-Apr-18 03:59N 37°51' W 122°29'0 0.0
2018-Apr-18 03:29N 37°51' W 122°29'0 0.0
2018-Apr-18 02:57N 37°51' W 122°29'0 0.0
2018-Apr-18 02:30N 37°51' W 122°29'0 0.0
2018-Apr-18 02:00N 37°51' W 122°29'0 0.0
2018-Apr-18 01:30N 37°51' W 122°29'0 0.0
2018-Apr-18 01:00N 37°51' W 122°29'0 0.0
2018-Apr-18 00:29N 37°51' W 122°29'0 0.0
2018-Apr-18 00:00N 37°51' W 122°29'0 0.0
2018-Apr-17 23:29N 37°51' W 122°29'0 0.0
2018-Apr-17 22:59N 37°51' W 122°29'0 0.0
2018-Apr-17 22:29N 37°51' W 122°29'0 0.0
2018-Apr-17 22:00N 37°51' W 122°29'0 0.0
2018-Apr-17 21:29N 37°51' W 122°29'0 0.0
2018-Apr-17 21:00N 37°51' W 122°29'0 0.0
2018-Apr-17 20:30N 37°51' W 122°29'0 0.0
2018-Apr-17 20:00N 37°51' W 122°29'0 0.0
2018-Apr-17 19:26N 37°51' W 122°29'0 0.0
2018-Apr-17 18:59N 37°51' W 122°29'0 0.0
2018-Apr-17 18:28N 37°51' W 122°29'0 0.0
2018-Apr-17 18:00N 37°51' W 122°29'0 0.0
2018-Apr-17 17:31N 37°51' W 122°29'0 0.0
2018-Apr-17 17:00N 37°51' W 122°29'0 0.0
2018-Apr-17 16:27N 37°51' W 122°29'0 0.0
2018-Apr-17 16:00N 37°51' W 122°29'0 0.0
2018-Apr-17 15:30N 37°51' W 122°29'0 0.0
2018-Apr-17 15:00N 37°51' W 122°29'0 0.0
2018-Apr-17 14:30N 37°51' W 122°29'0 0.0
2018-Apr-17 13:59N 37°51' W 122°29'0 0.0
2018-Apr-17 13:29N 37°51' W 122°29'0 0.0
2018-Apr-17 13:00N 37°51' W 122°29'0 0.0
2018-Apr-17 12:30N 37°51' W 122°29'0 0.0
2018-Apr-17 11:59N 37°51' W 122°29'0 0.0
2018-Apr-17 11:30N 37°51' W 122°29'0 0.0
2018-Apr-17 11:00N 37°51' W 122°29'0 0.0
2018-Apr-17 10:30N 37°51' W 122°29'0 0.0
2018-Apr-17 10:00N 37°51' W 122°29'0 0.0
2018-Apr-17 09:30N 37°51' W 122°29'0 0.0
2018-Apr-17 09:00N 37°51' W 122°29'0 0.0
2018-Apr-17 08:30N 37°51' W 122°29'0 0.0
2018-Apr-17 08:00N 37°51' W 122°29'0 0.0
2018-Apr-17 07:30N 37°51' W 122°29'0 0.0
2018-Apr-17 07:01N 37°51' W 122°29'0 0.0
2018-Apr-17 06:30N 37°51' W 122°29'0 0.0
2018-Apr-17 06:00N 37°51' W 122°29'0 0.0
2018-Apr-17 05:30N 37°51' W 122°29'0 0.0
2018-Apr-17 05:00N 37°51' W 122°29'0 0.0
2018-Apr-17 04:30N 37°51' W 122°29'0 0.0
2018-Apr-17 04:00N 37°51' W 122°29'0 0.0
2018-Apr-17 03:30N 37°51' W 122°29'0 0.0
2018-Apr-17 03:00N 37°51' W 122°29'0 0.0
2018-Apr-17 02:29N 37°51' W 122°29'0 0.0
2018-Apr-17 01:59N 37°51' W 122°29'0 0.0
2018-Apr-17 01:30N 37°51' W 122°29'0 0.0
2018-Apr-17 00:59N 37°51' W 122°29'0 0.0
2018-Apr-17 00:30N 37°51' W 122°29'0 0.0
2018-Apr-17 00:00N 37°51' W 122°29'0 0.0
2018-Apr-16 23:30N 37°51' W 122°29'0 0.0
2018-Apr-16 23:00N 37°51' W 122°29'0 0.0
2018-Apr-16 22:30N 37°51' W 122°29'  
Track history (hours):
 
Tides and Currents Weather Stations Pressure Air Temp Water Temp Dewpoint Dewpoint Depression Visibility Wind Speed Wind Dir Waves Ship Positions

Defiance

Owner: Gabbert Mr, James J, Sausalito, CA. More information available from US FCC via Universal Licensing System and Coast Guard Vessel Documentation Center.

Last reported at 2018-Apr-26 22:10 UTC. Time now 2018-Apr-26 22:59 UTC.
Position N 37°51' W 122°29'.

Length 27 m; draft 3 m.

Type: Pleasure craft. MMSI: 367108460.

Date/timePositionNaut miles runAvg speedWind from/ knotsBaromVisibWave heightAir tempDewpointWater temp
2018-Apr-26 22:10N 37°51' W 122°29'0 0.0
2018-Apr-26 21:58N 37°51' W 122°29'0 0.0
2018-Apr-26 17:57N 37°51' W 122°29'0 0.0
2018-Apr-26 17:27N 37°51' W 122°29'0 0.0
2018-Apr-26 17:00N 37°51' W 122°29'0 0.0
2018-Apr-26 15:39N 37°51' W 122°29'0 0.0
2018-Apr-26 15:22N 37°51' W 122°29'0 0.0
2018-Apr-26 14:51N 37°51' W 122°29'0 0.0
2018-Apr-26 14:26N 37°51' W 122°29'0 0.0
2018-Apr-26 13:57N 37°51' W 122°29'0 0.0
2018-Apr-26 13:27N 37°51' W 122°29'0 0.0
2018-Apr-26 12:50N 37°51' W 122°29'0 0.0
2018-Apr-26 12:28N 37°51' W 122°29'0 0.0
2018-Apr-26 11:56N 37°51' W 122°29'0 0.0
2018-Apr-26 11:27N 37°51' W 122°29'0 0.0
2018-Apr-26 09:46N 37°51' W 122°29'0 0.0
2018-Apr-26 09:27N 37°51' W 122°29'0 0.0
2018-Apr-26 08:54N 37°51' W 122°29'0 0.0
2018-Apr-26 08:25N 37°51' W 122°29'0 0.0
2018-Apr-26 07:51N 37°51' W 122°29'0 0.0
2018-Apr-26 07:17N 37°51' W 122°29'0 0.0
2018-Apr-26 06:40N 37°51' W 122°29'0 0.0
2018-Apr-26 06:25N 37°51' W 122°29'0 0.0
2018-Apr-26 05:51N 37°51' W 122°29'0 0.0
2018-Apr-26 05:24N 37°51' W 122°29'0 0.0
2018-Apr-26 04:32N 37°51' W 122°29'0 0.0
2018-Apr-26 04:22N 37°51' W 122°29'0 0.0
2018-Apr-26 03:57N 37°51' W 122°29'0 0.0
2018-Apr-26 03:30N 37°51' W 122°29'0 0.0
2018-Apr-26 02:49N 37°51' W 122°29'0 0.0
2018-Apr-26 02:26N 37°51' W 122°29'0 0.0
2018-Apr-25 20:32N 37°51' W 122°29'0 0.0
2018-Apr-25 20:21N 37°51' W 122°29'0 0.0
2018-Apr-25 19:45N 37°51' W 122°29'0 0.0
2018-Apr-25 19:17N 37°51' W 122°29'0 0.0
2018-Apr-25 18:56N 37°51' W 122°29'0 0.0
2018-Apr-25 18:29N 37°51' W 122°29'0 0.0
2018-Apr-25 17:53N 37°51' W 122°29'0 0.0
2018-Apr-25 17:27N 37°51' W 122°29'2 4.8
2018-Apr-25 17:00N 37°53' W 122°26'10 9.0
2018-Apr-25 15:56N 38°01' W 122°22'4 9.7
2018-Apr-25 15:30N 38°03' W 122°17'3 0.2
2018-Apr-24 19:56N 38°04' W 122°13'7 8.4
2018-Apr-24 19:03N 38°01' W 122°22'3 8.8
2018-Apr-24 18:46N 37°60' W 122°24'2 9.3
2018-Apr-24 18:30N 37°58' W 122°26'4 8.8
2018-Apr-24 18:00N 37°53' W 122°26'3 6.2
2018-Apr-24 17:30N 37°51' W 122°29'0 0.0
2018-Apr-24 17:00N 37°51' W 122°29'0 0.0
2018-Apr-24 16:30N 37°51' W 122°29'0 0.0
2018-Apr-24 16:00N 37°51' W 122°29'0 0.0
2018-Apr-24 15:29N 37°51' W 122°29'0 0.0
2018-Apr-24 15:00N 37°51' W 122°29'0 0.0
2018-Apr-24 14:30N 37°51' W 122°29'0 0.0
2018-Apr-24 13:59N 37°51' W 122°29'0 0.0
2018-Apr-24 13:30N 37°51' W 122°29'0 0.0
2018-Apr-24 12:59N 37°51' W 122°29'0 0.0
2018-Apr-24 12:30N 37°51' W 122°29'0 0.0
2018-Apr-24 11:59N 37°51' W 122°29'0 0.0
2018-Apr-24 11:30N 37°51' W 122°29'0 0.0
2018-Apr-24 11:00N 37°51' W 122°29'0 0.0
2018-Apr-24 10:30N 37°51' W 122°29'0 0.0
2018-Apr-24 10:01N 37°51' W 122°29'0 0.0
2018-Apr-24 09:31N 37°51' W 122°29'0 0.0
2018-Apr-24 09:00N 37°51' W 122°29'0 0.0
2018-Apr-24 08:30N 37°51' W 122°29'0 0.0
2018-Apr-24 08:00N 37°51' W 122°29'0 0.0
2018-Apr-24 07:29N 37°51' W 122°29'0 0.0
2018-Apr-24 07:00N 37°51' W 122°29'0 0.0
2018-Apr-24 06:30N 37°51' W 122°29'0 0.0
2018-Apr-24 06:00N 37°51' W 122°29'0 0.0
2018-Apr-24 05:29N 37°51' W 122°29'0 0.0
2018-Apr-24 04:59N 37°51' W 122°29'0 0.0
2018-Apr-24 04:29N 37°51' W 122°29'0 0.0
2018-Apr-24 04:00N 37°51' W 122°29'0 0.0
2018-Apr-24 03:28N 37°51' W 122°29'0 0.0
2018-Apr-24 02:59N 37°51' W 122°29'0 0.0
2018-Apr-24 02:30N 37°51' W 122°29'0 0.0
2018-Apr-24 02:00N 37°51' W 122°29'0 0.0
2018-Apr-24 01:30N 37°51' W 122°29'0 0.0
2018-Apr-24 01:00N 37°51' W 122°29'0 0.0
2018-Apr-24 00:30N 37°51' W 122°29'0 0.0
2018-Apr-24 00:00N 37°51' W 122°29'0 0.0
2018-Apr-23 23:29N 37°51' W 122°29'0 0.0
2018-Apr-23 23:00N 37°51' W 122°29'0 0.0
2018-Apr-23 22:30N 37°51' W 122°29'0 0.0
2018-Apr-23 21:59N 37°51' W 122°29'0 0.0
2018-Apr-23 21:30N 37°51' W 122°29'0 0.0
2018-Apr-23 21:00N 37°51' W 122°29'0 0.0
2018-Apr-23 20:30N 37°51' W 122°29'0 0.0
2018-Apr-23 19:58N 37°51' W 122°29'0 0.0
2018-Apr-23 19:30N 37°51' W 122°29'0 0.0
2018-Apr-23 19:00N 37°51' W 122°29'0 0.0
2018-Apr-23 18:30N 37°51' W 122°29'0 0.0
2018-Apr-23 18:00N 37°51' W 122°29'0 0.0
2018-Apr-23 17:29N 37°51' W 122°29'0 0.0
2018-Apr-23 17:00N 37°51' W 122°29'0 0.0
2018-Apr-23 16:29N 37°51' W 122°29'0 0.0
2018-Apr-23 16:00N 37°51' W 122°29'0 0.0
2018-Apr-23 15:30N 37°51' W 122°29'0 0.0
2018-Apr-23 15:00N 37°51' W 122°29'0 0.0
2018-Apr-23 14:30N 37°51' W 122°29'0 0.0
2018-Apr-23 14:00N 37°51' W 122°29'0 0.0
2018-Apr-23 13:30N 37°51' W 122°29'0 0.0
2018-Apr-23 13:00N 37°51' W 122°29'0 0.0
2018-Apr-23 12:30N 37°51' W 122°29'0 0.0
2018-Apr-23 11:59N 37°51' W 122°29'0 0.0
2018-Apr-23 11:31N 37°51' W 122°29'0 0.0
2018-Apr-23 10:59N 37°51' W 122°29'0 0.0
2018-Apr-23 10:29N 37°51' W 122°29'0 0.0
2018-Apr-23 10:00N 37°51' W 122°29'0 0.0
2018-Apr-23 09:30N 37°51' W 122°29'0 0.0
2018-Apr-23 09:00N 37°51' W 122°29'0 0.0
2018-Apr-23 08:31N 37°51' W 122°29'0 0.0
2018-Apr-23 08:01N 37°51' W 122°29'0 0.0
2018-Apr-23 07:30N 37°51' W 122°29'0 0.0
2018-Apr-23 07:00N 37°51' W 122°29'0 0.0
2018-Apr-23 06:30N 37°51' W 122°29'0 0.0
2018-Apr-23 06:00N 37°51' W 122°29'0 0.0
2018-Apr-23 05:30N 37°51' W 122°29'0 0.0
2018-Apr-23 05:00N 37°51' W 122°29'0 0.0
2018-Apr-23 04:29N 37°51' W 122°29'0 0.0
2018-Apr-23 04:00N 37°51' W 122°29'0 0.0
2018-Apr-23 03:30N 37°51' W 122°29'0 0.0
2018-Apr-23 02:59N 37°51' W 122°29'0 0.0
2018-Apr-23 02:30N 37°51' W 122°29'0 0.0
2018-Apr-23 02:01N 37°51' W 122°29'0 0.0
2018-Apr-23 01:30N 37°51' W 122°29'0 0.0
2018-Apr-23 00:59N 37°51' W 122°29'0 0.0
2018-Apr-23 00:30N 37°51' W 122°29'0 0.0
2018-Apr-23 00:00N 37°51' W 122°29'0 0.0
2018-Apr-22 23:30N 37°51' W 122°29'0 0.0
2018-Apr-22 22:59N 37°51' W 122°29'0 0.0
2018-Apr-22 22:28N 37°51' W 122°29'0 0.0
2018-Apr-22 22:00N 37°51' W 122°29'0 0.0
2018-Apr-22 21:29N 37°51' W 122°29'0 0.0
2018-Apr-22 20:59N 37°51' W 122°29'0 0.0
2018-Apr-22 20:29N 37°51' W 122°29'0 0.0
2018-Apr-22 19:58N 37°51' W 122°29'0 0.0
2018-Apr-22 19:29N 37°51' W 122°29'0 0.0
2018-Apr-22 19:00N 37°51' W 122°29'0 0.0
2018-Apr-22 18:30N 37°51' W 122°29'0 0.0
2018-Apr-22 18:00N 37°51' W 122°29'0 0.0
2018-Apr-22 17:30N 37°51' W 122°29'0 0.0
2018-Apr-22 17:00N 37°51' W 122°29'0 0.0
2018-Apr-22 16:30N 37°51' W 122°29'0 0.0
2018-Apr-22 16:00N 37°51' W 122°29'0 0.0
2018-Apr-22 15:30N 37°51' W 122°29'0 0.0
2018-Apr-22 15:00N 37°51' W 122°29'0 0.0
2018-Apr-22 14:29N 37°51' W 122°29'0 0.0
2018-Apr-22 14:01N 37°51' W 122°29'0 0.0
2018-Apr-22 13:31N 37°51' W 122°29'0 0.0
2018-Apr-22 13:00N 37°51' W 122°29'0 0.0
2018-Apr-22 12:30N 37°51' W 122°29'0 0.0
2018-Apr-22 12:00N 37°51' W 122°29'0 0.0
2018-Apr-22 11:30N 37°51' W 122°29'0 0.0
2018-Apr-22 11:00N 37°51' W 122°29'0 0.0
2018-Apr-22 10:30N 37°51' W 122°29'0 0.0
2018-Apr-22 09:59N 37°51' W 122°29'0 0.0
2018-Apr-22 09:30N 37°51' W 122°29'0 0.0
2018-Apr-22 09:01N 37°51' W 122°29'0 0.0
2018-Apr-22 08:30N 37°51' W 122°29'0 0.0
2018-Apr-22 08:00N 37°51' W 122°29'0 0.0
2018-Apr-22 07:30N 37°51' W 122°29'0 0.0
2018-Apr-22 07:00N 37°51' W 122°29'0 0.0
2018-Apr-22 06:30N 37°51' W 122°29'0 0.0
2018-Apr-22 06:00N 37°51' W 122°29'0 0.0
2018-Apr-22 05:30N 37°51' W 122°29'0 0.0
2018-Apr-22 05:00N 37°51' W 122°29'0 0.0
2018-Apr-22 04:30N 37°51' W 122°29'0 0.0
2018-Apr-22 04:00N 37°51' W 122°29'0 0.0
2018-Apr-22 03:29N 37°51' W 122°29'0 0.0
2018-Apr-22 03:00N 37°51' W 122°29'0 0.0
2018-Apr-22 02:30N 37°51' W 122°29'0 0.0
2018-Apr-22 02:00N 37°51' W 122°29'0 0.0
2018-Apr-22 01:30N 37°51' W 122°29'0 0.0
2018-Apr-22 01:00N 37°51' W 122°29'0 0.0
2018-Apr-22 00:30N 37°51' W 122°29'0 0.0
2018-Apr-22 00:00N 37°51' W 122°29'0 0.0
2018-Apr-21 23:31N 37°51' W 122°29'0 0.0
2018-Apr-21 23:00N 37°51' W 122°29'0 0.0
2018-Apr-21 22:31N 37°51' W 122°29'0 0.0
2018-Apr-21 22:00N 37°51' W 122°29'0 0.0
2018-Apr-21 21:31N 37°51' W 122°29'0 0.0
2018-Apr-21 21:00N 37°51' W 122°29'0 0.0
2018-Apr-21 20:30N 37°51' W 122°29'0 0.0
2018-Apr-21 20:00N 37°51' W 122°29'0 0.0
2018-Apr-21 19:29N 37°51' W 122°29'0 0.0
2018-Apr-21 19:00N 37°51' W 122°29'0 0.0
2018-Apr-21 18:30N 37°51' W 122°29'0 0.0
2018-Apr-21 18:00N 37°51' W 122°29'0 0.0
2018-Apr-21 17:30N 37°51' W 122°29'0 0.0
2018-Apr-21 17:00N 37°51' W 122°29'0 0.0
2018-Apr-21 16:30N 37°51' W 122°29'0 0.0
2018-Apr-21 16:00N 37°51' W 122°29'0 0.0
2018-Apr-21 15:30N 37°51' W 122°29'0 0.0
2018-Apr-21 15:00N 37°51' W 122°29'0 0.0
2018-Apr-21 14:30N 37°51' W 122°29'0 0.0
2018-Apr-21 14:00N 37°51' W 122°29'0 0.0
2018-Apr-21 13:30N 37°51' W 122°29'0 0.0
2018-Apr-21 12:59N 37°51' W 122°29'0 0.0
2018-Apr-21 12:30N 37°51' W 122°29'0 0.0
2018-Apr-21 12:00N 37°51' W 122°29'0 0.0
2018-Apr-21 11:30N 37°51' W 122°29'0 0.0
2018-Apr-21 11:00N 37°51' W 122°29'0 0.0
2018-Apr-21 10:30N 37°51' W 122°29'0 0.0
2018-Apr-21 10:00N 37°51' W 122°29'0 0.0
2018-Apr-21 09:30N 37°51' W 122°29'0 0.0
2018-Apr-21 09:00N 37°51' W 122°29'0 0.0
2018-Apr-21 08:30N 37°51' W 122°29'0 0.0
2018-Apr-21 08:00N 37°51' W 122°29'0 0.0
2018-Apr-21 07:29N 37°51' W 122°29'0 0.0
2018-Apr-21 07:01N 37°51' W 122°29'0 0.0
2018-Apr-21 06:28N 37°51' W 122°29'0 0.0
2018-Apr-21 05:59N 37°51' W 122°29'0 0.0
2018-Apr-21 05:30N 37°51' W 122°29'0 0.0
2018-Apr-21 05:00N 37°51' W 122°29'0 0.0
2018-Apr-21 04:27N 37°51' W 122°29'0 0.0
2018-Apr-21 04:00N 37°51' W 122°29'0 0.0
2018-Apr-21 03:30N 37°51' W 122°29'0 0.0
2018-Apr-21 02:59N 37°51' W 122°29'0 0.0
2018-Apr-21 02:30N 37°51' W 122°29'0 0.0
2018-Apr-21 02:00N 37°51' W 122°29'0 0.0
2018-Apr-21 01:30N 37°51' W 122°29'0 0.0
2018-Apr-21 00:59N 37°51' W 122°29'0 0.0
2018-Apr-21 00:30N 37°51' W 122°29'0 0.0
2018-Apr-21 00:00N 37°51' W 122°29'0 0.0
2018-Apr-20 23:30N 37°51' W 122°29'0 0.0
2018-Apr-20 23:00N 37°51' W 122°29'0 0.0
2018-Apr-20 22:30N 37°51' W 122°29'0 0.0
2018-Apr-20 22:00N 37°51' W 122°29'0 0.0
2018-Apr-20 21:29N 37°51' W 122°29'0 0.0
2018-Apr-20 21:00N 37°51' W 122°29'0 0.0
2018-Apr-20 20:30N 37°51' W 122°29'0 0.0
2018-Apr-20 19:59N 37°51' W 122°29'0 0.0
2018-Apr-20 19:23N 37°51' W 122°29'0 0.0
2018-Apr-20 19:00N 37°51' W 122°29'0 0.0
2018-Apr-20 18:30N 37°51' W 122°29'0 0.0
2018-Apr-20 18:00N 37°51' W 122°29'0 0.0
2018-Apr-20 17:29N 37°51' W 122°29'0 0.0
2018-Apr-20 17:00N 37°51' W 122°29'0 0.0
2018-Apr-20 16:30N 37°51' W 122°29'0 0.0
2018-Apr-20 16:00N 37°51' W 122°29'0 0.0
2018-Apr-20 15:25N 37°51' W 122°29'0 0.0
2018-Apr-20 15:00N 37°51' W 122°29'0 0.0
2018-Apr-20 14:30N 37°51' W 122°29'0 0.0
2018-Apr-20 14:00N 37°51' W 122°29'0 0.0
2018-Apr-20 13:31N 37°51' W 122°29'0 0.0
2018-Apr-20 13:00N 37°51' W 122°29'0 0.0
2018-Apr-20 12:28N 37°51' W 122°29'0 0.0
2018-Apr-20 12:00N 37°51' W 122°29'0 0.0
2018-Apr-20 11:30N 37°51' W 122°29'0 0.0
2018-Apr-20 11:00N 37°51' W 122°29'0 0.0
2018-Apr-20 10:30N 37°51' W 122°29'0 0.0
2018-Apr-20 10:00N 37°51' W 122°29'0 0.0
2018-Apr-20 09:30N 37°51' W 122°29'0 0.0
2018-Apr-20 09:00N 37°51' W 122°29'0 0.0
2018-Apr-20 08:30N 37°51' W 122°29'0 0.0
2018-Apr-20 08:00N 37°51' W 122°29'0 0.0
2018-Apr-20 07:30N 37°51' W 122°29'0 0.0
2018-Apr-20 07:00N 37°51' W 122°29'0 0.0
2018-Apr-20 06:30N 37°51' W 122°29'0 0.0
2018-Apr-20 05:58N 37°51' W 122°29'0 0.0
2018-Apr-20 05:30N 37°51' W 122°29'0 0.0
2018-Apr-20 05:00N 37°51' W 122°29'0 0.0
2018-Apr-20 04:28N 37°51' W 122°29'0 0.0
2018-Apr-20 03:52N 37°51' W 122°29'0 0.0
2018-Apr-20 03:30N 37°51' W 122°29'0 0.0
2018-Apr-20 03:00N 37°51' W 122°29'0 0.0
2018-Apr-20 02:30N 37°51' W 122°29'0 0.0
2018-Apr-20 01:57N 37°51' W 122°29'0 0.0
2018-Apr-20 01:29N 37°51' W 122°29'0 0.0
2018-Apr-20 00:58N 37°51' W 122°29'0 0.0
2018-Apr-20 00:26N 37°51' W 122°29'0 0.0
2018-Apr-20 00:00N 37°51' W 122°29'0 0.0
2018-Apr-19 23:17N 37°51' W 122°29'0 0.0
2018-Apr-19 22:48N 37°51' W 122°29'0 0.0
2018-Apr-19 22:00N 37°51' W 122°29'0 0.0
2018-Apr-19 21:27N 37°51' W 122°29'0 0.0
2018-Apr-19 21:00N 37°51' W 122°29'0 0.0
2018-Apr-19 20:30N 37°51' W 122°29'0 0.0
2018-Apr-19 20:00N 37°51' W 122°29'0 0.0
2018-Apr-19 19:30N 37°51' W 122°29'0 0.0
2018-Apr-19 18:59N 37°51' W 122°29'0 0.0
2018-Apr-19 18:29N 37°51' W 122°29'0 0.0
2018-Apr-19 18:00N 37°51' W 122°29'0 0.0
2018-Apr-19 17:30N 37°51' W 122°29'0 0.0
2018-Apr-19 17:00N 37°51' W 122°29'0 0.0
2018-Apr-19 16:29N 37°51' W 122°29'0 0.0
2018-Apr-19 15:57N 37°51' W 122°29'0 0.0
2018-Apr-19 15:30N 37°51' W 122°29'0 0.0
2018-Apr-19 14:59N 37°51' W 122°29'0 0.0
2018-Apr-19 14:29N 37°51' W 122°29'0 0.0
2018-Apr-19 14:00N 37°51' W 122°29'0 0.0
2018-Apr-19 13:29N 37°51' W 122°29'0 0.0
2018-Apr-19 12:59N 37°51' W 122°29'0 0.0
2018-Apr-19 12:27N 37°51' W 122°29'0 0.0
2018-Apr-19 12:00N 37°51' W 122°29'0 0.0
2018-Apr-19 11:30N 37°51' W 122°29'0 0.0
2018-Apr-19 11:00N 37°51' W 122°29'0 0.0
2018-Apr-19 10:29N 37°51' W 122°29'0 0.0
2018-Apr-19 10:00N 37°51' W 122°29'0 0.0
2018-Apr-19 09:30N 37°51' W 122°29'0 0.0
2018-Apr-19 08:59N 37°51' W 122°29'0 0.0
2018-Apr-19 08:30N 37°51' W 122°29'0 0.0
2018-Apr-19 08:00N 37°51' W 122°29'0 0.0
2018-Apr-19 07:30N 37°51' W 122°29'0 0.0
2018-Apr-19 07:00N 37°51' W 122°29'0 0.0
2018-Apr-19 06:31N 37°51' W 122°29'0 0.0
2018-Apr-19 06:00N 37°51' W 122°29'0 0.0
2018-Apr-19 05:30N 37°51' W 122°29'0 0.0
2018-Apr-19 05:00N 37°51' W 122°29'0 0.0
2018-Apr-19 04:30N 37°51' W 122°29'0 0.0
2018-Apr-19 03:59N 37°51' W 122°29'0 0.0
2018-Apr-19 03:29N 37°51' W 122°29'0 0.0
2018-Apr-19 02:59N 37°51' W 122°29'0 0.0
2018-Apr-19 02:30N 37°51' W 122°29'0 0.0
2018-Apr-19 01:58N 37°51' W 122°29'0 0.0
2018-Apr-19 01:28N 37°51' W 122°29'0 0.0
2018-Apr-19 00:58N 37°51' W 122°29'0 0.0
2018-Apr-19 00:22N 37°51' W 122°29'0 0.0
2018-Apr-18 23:51N 37°51' W 122°29'0 0.0
2018-Apr-18 23:30N 37°51' W 122°29'0 0.0
2018-Apr-18 22:53N 37°51' W 122°29'0 0.0
2018-Apr-18 22:30N 37°51' W 122°29'0 0.0
2018-Apr-18 22:01N 37°51' W 122°29'0 0.0
2018-Apr-18 21:29N 37°51' W 122°29'0 0.0
2018-Apr-18 20:59N 37°51' W 122°29'0 0.0
2018-Apr-18 20:28N 37°51' W 122°29'0 0.0
2018-Apr-18 19:59N 37°51' W 122°29'0 0.0
2018-Apr-18 19:29N 37°51' W 122°29'0 0.0
2018-Apr-18 18:59N 37°51' W 122°29'0 0.0
2018-Apr-18 18:30N 37°51' W 122°29'0 0.0
2018-Apr-18 17:59N 37°51' W 122°29'0 0.0
2018-Apr-18 17:30N 37°51' W 122°29'0 0.0
2018-Apr-18 17:00N 37°51' W 122°29'0 0.0
2018-Apr-18 16:28N 37°51' W 122°29'0 0.0
2018-Apr-18 16:00N 37°51' W 122°29'0 0.0
2018-Apr-18 15:30N 37°51' W 122°29'0 0.0
2018-Apr-18 14:52N 37°51' W 122°29'0 0.0
2018-Apr-18 14:29N 37°51' W 122°29'0 0.0
2018-Apr-18 13:56N 37°51' W 122°29'0 0.0
2018-Apr-18 13:23N 37°51' W 122°29'0 0.0
2018-Apr-18 12:58N 37°51' W 122°29'0 0.0
2018-Apr-18 12:29N 37°51' W 122°29'0 0.0
2018-Apr-18 11:57N 37°51' W 122°29'0 0.0
2018-Apr-18 11:30N 37°51' W 122°29'0 0.0
2018-Apr-18 11:00N 37°51' W 122°29'0 0.0
2018-Apr-18 10:30N 37°51' W 122°29'0 0.0
2018-Apr-18 09:59N 37°51' W 122°29'0 0.0
2018-Apr-18 09:30N 37°51' W 122°29'0 0.0
2018-Apr-18 09:00N 37°51' W 122°29'0 0.0
2018-Apr-18 08:31N 37°51' W 122°29'0 0.0
2018-Apr-18 08:00N 37°51' W 122°29'0 0.0
2018-Apr-18 07:30N 37°51' W 122°29'0 0.0
2018-Apr-18 07:00N 37°51' W 122°29'0 0.0
2018-Apr-18 06:30N 37°51' W 122°29'0 0.0
2018-Apr-18 05:59N 37°51' W 122°29'0 0.0
2018-Apr-18 05:30N 37°51' W 122°29'0 0.0
2018-Apr-18 04:59N 37°51' W 122°29'0 0.0
2018-Apr-18 04:29N 37°51' W 122°29'0 0.0
2018-Apr-18 03:59N 37°51' W 122°29'0 0.0
2018-Apr-18 03:29N 37°51' W 122°29'0 0.0
2018-Apr-18 02:57N 37°51' W 122°29'0 0.0
2018-Apr-18 02:30N 37°51' W 122°29'0 0.0
2018-Apr-18 02:00N 37°51' W 122°29'0 0.0
2018-Apr-18 01:30N 37°51' W 122°29'0 0.0
2018-Apr-18 01:00N 37°51' W 122°29'0 0.0
2018-Apr-18 00:29N 37°51' W 122°29'0 0.0
2018-Apr-18 00:00N 37°51' W 122°29'0 0.0
2018-Apr-17 23:29N 37°51' W 122°29'0 0.0
2018-Apr-17 22:59N 37°51' W 122°29'0 0.0
2018-Apr-17 22:29N 37°51' W 122°29'0 0.0
2018-Apr-17 22:00N 37°51' W 122°29'0 0.0
2018-Apr-17 21:29N 37°51' W 122°29'0 0.0
2018-Apr-17 21:00N 37°51' W 122°29'0 0.0
2018-Apr-17 20:30N 37°51' W 122°29'0 0.0
2018-Apr-17 20:00N 37°51' W 122°29'0 0.0
2018-Apr-17 19:26N 37°51' W 122°29'0 0.0
2018-Apr-17 18:59N 37°51' W 122°29'0 0.0
2018-Apr-17 18:28N 37°51' W 122°29'0 0.0
2018-Apr-17 18:00N 37°51' W 122°29'0 0.0
2018-Apr-17 17:31N 37°51' W 122°29'0 0.0
2018-Apr-17 17:00N 37°51' W 122°29'0 0.0
2018-Apr-17 16:27N 37°51' W 122°29'0 0.0
2018-Apr-17 16:00N 37°51' W 122°29'0 0.0
2018-Apr-17 15:30N 37°51' W 122°29'0 0.0
2018-Apr-17 15:00N 37°51' W 122°29'0 0.0
2018-Apr-17 14:30N 37°51' W 122°29'0 0.0
2018-Apr-17 13:59N 37°51' W 122°29'0 0.0
2018-Apr-17 13:29N 37°51' W 122°29'0 0.0
2018-Apr-17 13:00N 37°51' W 122°29'0 0.0
2018-Apr-17 12:30N 37°51' W 122°29'0 0.0
2018-Apr-17 11:59N 37°51' W 122°29'0 0.0
2018-Apr-17 11:30N 37°51' W 122°29'0 0.0
2018-Apr-17 11:00N 37°51' W 122°29'0 0.0
2018-Apr-17 10:30N 37°51' W 122°29'0 0.0
2018-Apr-17 10:00N 37°51' W 122°29'0 0.0
2018-Apr-17 09:30N 37°51' W 122°29'0 0.0
2018-Apr-17 09:00N 37°51' W 122°29'0 0.0
2018-Apr-17 08:30N 37°51' W 122°29'0 0.0
2018-Apr-17 08:00N 37°51' W 122°29'0 0.0
2018-Apr-17 07:30N 37°51' W 122°29'0 0.0
2018-Apr-17 07:01N 37°51' W 122°29'0 0.0
2018-Apr-17 06:30N 37°51' W 122°29'0 0.0
2018-Apr-17 06:00N 37°51' W 122°29'0 0.0
2018-Apr-17 05:30N 37°51' W 122°29'0 0.0
2018-Apr-17 05:00N 37°51' W 122°29'0 0.0
2018-Apr-17 04:30N 37°51' W 122°29'0 0.0
2018-Apr-17 04:00N 37°51' W 122°29'0 0.0
2018-Apr-17 03:30N 37°51' W 122°29'0 0.0
2018-Apr-17 03:00N 37°51' W 122°29'0 0.0
2018-Apr-17 02:29N 37°51' W 122°29'0 0.0
2018-Apr-17 01:59N 37°51' W 122°29'0 0.0
2018-Apr-17 01:30N 37°51' W 122°29'0 0.0
2018-Apr-17 00:59N 37°51' W 122°29'0 0.0
2018-Apr-17 00:30N 37°51' W 122°29'0 0.0
2018-Apr-17 00:00N 37°51' W 122°29'0 0.0
2018-Apr-16 23:30N 37°51' W 122°29'0 0.0
2018-Apr-16 23:00N 37°51' W 122°29'0 0.0
2018-Apr-16 22:30N 37°51' W 122°29'  

Dump ship's entire track history